Time;durP1;ratioP1;P1;durP2;ratioP2;P2;SDS_P1;SDS_P2;PMS_P1;PMS_P2;Temp;Humidity;BMP_temperature;BMP_pressure;BME280_temperature;BME280_humidity;BME280_pressure;Samples;Min_cycle;Max_cycle;Signal;HPM_P1;HPM_P2
2023/02/21 02:14:37;;;;;;;77.17;72.00;;;;;;;5.75;92.62;98814.81;1733905;82;25603;-53
2023/02/21 02:17:29;;;;;;;77.27;72.27;;;;;;;5.78;93.46;98833.53;1736051;82;25382;-54
2023/02/21 02:20:37;;;;;;;78.90;73.78;;;;;;;5.78;93.11;98824.14;1736094;82;25210;-52
2023/02/21 02:24:01;;;;;;;76.22;71.42;;;;;;;5.80;93.05;98843.39;1735330;82;28061;-52
2023/02/21 02:26:47;;;;;;;77.80;72.60;;;;;;;5.82;93.41;98831.79;1736105;82;25584;-54
2023/02/21 02:29:51;;;;;;;78.80;73.42;;;;;;;5.80;92.84;98842.05;1735704;82;25563;-52
2023/02/21 02:32:58;;;;;;;78.22;73.05;;;;;;;5.75;93.07;98836.27;1736068;82;25579;-55
2023/02/21 02:35:48;;;;;;;78.90;73.45;;;;;;;5.68;92.70;98853.38;1736066;82;25527;-51
2023/02/21 02:38:46;;;;;;;77.20;72.15;;;;;;;5.59;92.59;98838.61;1736283;82;27974;-54
2023/02/21 02:41:44;;;;;;;76.70;71.47;;;;;;;5.53;92.88;98843.08;1736126;82;25539;-54
2023/02/21 02:44:22;;;;;;;78.65;73.33;;;;;;;5.43;92.87;98858.89;1767117;80;25477;-52
2023/02/21 02:46:52;;;;;;;81.95;76.12;;;;;;;5.34;93.43;98857.52;1775002;80;25484;-56
2023/02/21 02:49:26;;;;;;;78.80;73.50;;;;;;;5.27;93.83;98859.08;1775484;80;25436;-54
2023/02/21 02:51:53;;;;;;;78.22;72.75;;;;;;;5.19;93.76;98857.92;1775355;80;25785;-51
2023/02/21 02:54:20;;;;;;;77.72;72.37;;;;;;;5.12;94.09;98860.25;1775251;80;25748;-54
2023/02/21 02:56:48;;;;;;;81.37;75.75;;;;;;;5.08;94.40;98849.92;1775297;80;25407;-54
2023/02/21 02:59:24;;;;;;;79.70;74.12;;;;;;;5.02;94.71;98855.94;1775314;80;25391;-52
2023/02/21 03:02:25;;;;;;;21.82;20.27;;;;;;;4.98;95.07;98850.41;1775397;80;25451;-52
2023/02/21 03:05:26;;;;;;;79.47;73.65;;;;;;;4.95;95.28;98856.37;1774789;80;27229;-52
2023/02/21 03:08:21;;;;;;;80.55;74.60;;;;;;;4.90;95.65;98836.40;1738053;80;25632;-53
2023/02/21 03:10:57;;;;;;;80.40;74.95;;;;;;;4.89;95.83;98842.06;1775264;80;25653;-51
2023/02/21 03:13:48;;;;;;;77.27;72.17;;;;;;;4.86;96.16;98852.30;1774798;80;25568;-54
2023/02/21 03:16:23;;;;;;;79.60;74.22;;;;;;;4.83;96.40;98852.13;1775370;80;25576;-53
2023/02/21 03:19:07;;;;;;;81.45;75.52;;;;;;;4.82;96.67;98837.95;1775347;80;27337;-52
2023/02/21 03:22:06;;;;;;;78.97;73.62;;;;;;;4.81;96.92;98830.99;1774827;80;25717;-53
2023/02/21 03:24:37;;;;;;;78.10;73.00;;;;;;;4.80;97.00;98828.09;1775406;80;25532;-54
2023/02/21 03:27:07;;;;;;;78.70;73.15;;;;;;;4.81;97.34;98842.27;1775338;80;25645;-54
2023/02/21 03:29:35;;;;;;;78.50;73.20;;;;;;;4.81;97.74;98846.28;1775383;80;25650;-54
2023/02/21 03:35:02;;;;;;;77.90;72.60;;;;;;;4.79;98.02;98839.89;1775213;80;25618;-52
2023/02/21 03:37:40;;;;;;;78.25;72.47;;;;;;;4.81;98.16;98838.25;1775313;80;25585;-53
2023/02/21 03:40:12;;;;;;;79.60;73.90;;;;;;;4.80;98.29;98835.31;1774123;80;25618;-53
2023/02/21 03:42:38;;;;;;;81.40;75.80;;;;;;;4.80;98.21;98841.48;1774516;80;25616;-51
2023/02/21 03:45:07;;;;;;;77.97;72.75;;;;;;;4.80;98.33;98851.39;1757058;80;27323;-53
2023/02/21 03:47:33;;;;;;;77.60;72.32;;;;;;;4.80;98.07;98837.47;1757156;81;25385;-53
2023/02/21 03:49:59;;;;;;;77.08;71.90;;;;;;;4.81;97.71;98835.57;1746720;81;25589;-53
2023/02/21 03:52:26;;;;;;;78.57;73.50;;;;;;;4.82;97.71;98846.54;1713303;82;25892;-53
2023/02/21 03:54:52;;;;;;;77.65;72.45;;;;;;;4.83;97.55;98834.71;1713368;82;25570;-53
2023/02/21 03:57:19;;;;;;;79.32;74.00;;;;;;;4.83;97.49;98836.83;1713309;83;29499;-53
2023/02/21 03:59:46;;;;;;;84.32;78.33;;;;;;;4.82;97.08;98827.23;1711155;83;25632;-55
2023/02/21 04:02:13;;;;;;;78.67;73.15;;;;;;;4.81;96.80;98833.67;1750724;81;25564;-55
2023/02/21 04:04:40;;;;;;;80.60;75.05;;;;;;;4.80;96.56;98833.45;1713253;82;25457;-53
2023/02/21 04:07:07;;;;;;;4.40;4.05;;;;;;;4.79;96.36;98840.45;1713347;83;25461;-53
2023/02/21 04:09:34;;;;;;;21.60;20.00;;;;;;;4.77;96.10;98833.27;1715746;83;27309;-53
2023/02/21 04:12:00;;;;;;;78.67;73.47;;;;;;;4.74;95.88;98836.00;1712008;83;25419;-54
2023/02/21 04:14:27;;;;;;;79.15;73.37;;;;;;;4.72;95.67;98821.34;1713307;83;25427;-54
2023/02/21 04:16:53;;;;;;;78.78;73.52;;;;;;;4.71;95.51;98825.11;1713282;83;25661;-52
2023/02/21 04:19:20;;;;;;;79.25;73.90;;;;;;;4.69;94.97;98836.13;1713376;83;25662;-53
2023/02/21 04:21:47;;;;;;;79.90;74.35;;;;;;;4.68;94.28;98821.95;1713334;83;27439;-53
2023/02/21 04:24:14;;;;;;;77.22;71.80;;;;;;;4.69;94.25;98814.70;1713322;83;25683;-54
2023/02/21 04:26:40;;;;;;;81.05;75.35;;;;;;;4.70;92.98;98813.61;1713334;83;25578;-56
2023/02/21 04:29:09;;;;;;;77.42;72.17;;;;;;;4.75;91.91;98820.70;1713232;83;25653;-54
2023/02/21 04:31:38;;;;;;;79.77;73.92;;;;;;;4.78;92.63;98813.41;1713490;83;25399;-52
2023/02/21 04:34:05;;;;;;;77.85;72.67;;;;;;;4.80;91.72;98813.36;1713286;83;27866;-55
2023/02/21 04:36:31;;;;;;;78.95;73.40;;;;;;;4.84;91.78;98824.25;1713210;83;25570;-52
2023/02/21 04:38:58;;;;;;;78.55;72.80;;;;;;;4.88;90.86;98821.19;1713267;83;25582;-51
2023/02/21 04:41:24;;;;;;;77.55;72.10;;;;;;;4.92;90.38;98820.83;1713244;83;25517;-52
2023/02/21 04:43:52;;;;;;;82.70;76.85;;;;;;;4.96;90.31;98826.36;1702364;83;25801;-54
2023/02/21 04:46:20;;;;;;;78.15;72.50;;;;;;;4.98;89.80;98829.52;1685705;85;27342;-52
2023/02/21 04:48:50;;;;;;;83.20;77.03;;;;;;;5.01;88.86;98836.39;1685580;85;25630;-55
2023/02/21 04:51:20;;;;;;;79.77;74.17;;;;;;;5.02;88.39;98836.65;1685659;85;25617;-51
2023/02/21 04:53:49;;;;;;;81.45;74.92;;;;;;;5.07;87.52;98850.45;1685642;85;25586;-54
2023/02/21 04:56:20;;;;;;;8.88;2.00;;;;;;;5.10;87.01;98839.67;1685992;85;25451;-52
2023/02/21 04:58:47;;;;;;;6.65;2.85;;;;;;;5.13;87.03;98850.57;1685648;85;28049;-51
2023/02/21 05:01:17;;;;;;;12.45;4.42;;;;;;;5.14;86.37;98842.78;1685596;85;25391;-52
2023/02/21 05:03:43;;;;;;;20.43;18.40;;;;;;;5.16;85.53;98861.21;1671677;85;25442;-53
2023/02/21 05:06:10;;;;;;;81.12;75.25;;;;;;;5.18;84.71;98845.63;1685530;85;25398;-56
2023/02/21 05:08:37;;;;;;;82.85;76.92;;;;;;;5.20;84.64;98846.11;1671597;84;25574;-50
2023/02/21 05:11:04;;;;;;;80.17;74.42;;;;;;;5.21;84.70;98849.02;1685619;85;27357;-55
2023/02/21 05:13:31;;;;;;;79.53;73.83;;;;;;;5.20;82.55;98854.15;1685548;85;25482;-51
2023/02/21 05:15:57;;;;;;;78.25;72.90;;;;;;;5.22;83.47;98853.29;1685625;85;25575;-51
2023/02/21 05:18:27;;;;;;;79.40;73.65;;;;;;;5.23;81.80;98843.59;1685566;85;25460;-52
2023/02/21 05:20:52;;;;;;;78.33;72.90;;;;;;;5.26;83.16;98842.73;1685448;84;25631;-51
2023/02/21 05:23:32;;;;;;;8.55;2.33;;;;;;;5.27;82.89;98856.39;1685561;85;27408;-52
2023/02/21 05:25:47;;;;;;;7.60;1.77;;;;;;;5.28;82.84;98868.68;1684107;84;25623;-54
2023/02/21 05:28:13;;;;;;;7.92;2.42;;;;;;;5.29;81.88;98846.15;1685590;85;25615;-52
2023/02/21 05:30:39;;;;;;;12.73;2.22;;;;;;;5.29;81.53;98854.19;1671595;85;25748;-51
2023/02/21 05:33:05;;;;;;;5.65;1.35;;;;;;;5.32;80.69;98863.75;1685617;85;25468;-52
2023/02/21 05:35:32;;;;;;;5.40;1.07;;;;;;;5.32;79.60;98857.60;1685601;85;27575;-52
2023/02/21 05:37:58;;;;;;;11.70;2.08;;;;;;;5.33;79.60;98858.63;1685608;85;25569;-51
2023/02/21 05:40:25;;;;;;;9.35;2.40;;;;;;;5.35;80.37;98869.05;1685602;85;25448;-51
2023/02/21 05:42:51;;;;;;;8.53;1.70;;;;;;;5.35;79.96;98875.76;1685557;85;25650;-51
2023/02/21 05:45:18;;;;;;;5.80;1.60;;;;;;;5.36;78.89;98875.98;1684977;84;25428;-51
2023/02/21 05:47:45;;;;;;;7.70;4.47;;;;;;;5.37;79.65;98869.53;1684867;85;27386;-51
2023/02/21 05:50:11;;;;;;;41.58;38.42;;;;;;;5.37;77.24;98866.29;1684734;85;27263;-55
2023/02/21 05:52:37;;;;;;;79.65;73.65;;;;;;;5.40;78.75;98875.06;1684851;85;25614;-53
2023/02/21 05:55:05;;;;;;;77.85;72.65;;;;;;;5.42;79.05;98874.20;1684803;85;25638;-52
2023/02/21 05:57:38;;;;;;;77.97;72.42;;;;;;;5.41;78.76;98882.02;1684895;85;25589;-53
2023/02/21 06:00:07;;;;;;;77.67;72.32;;;;;;;5.42;78.17;98878.22;1684875;85;27333;-53
2023/02/21 06:02:33;;;;;;;77.27;72.15;;;;;;;5.43;78.50;98875.80;1670945;85;25602;-52
2023/02/21 06:05:00;;;;;;;76.77;71.22;;;;;;;5.46;78.75;98882.97;1684819;85;25463;-52
2023/02/21 06:07:26;;;;;;;76.25;70.85;;;;;;;5.46;78.90;98870.34;1684809;85;25569;-51
2023/02/21 06:09:52;;;;;;;77.92;72.40;;;;;;;5.47;76.79;98878.64;1684893;85;25624;-51
2023/02/21 06:12:18;;;;;;;76.67;71.37;;;;;;;5.50;78.62;98886.61;1684883;85;27316;-55
2023/02/21 06:14:44;;;;;;;79.50;73.97;;;;;;;5.50;77.49;98875.88;1684782;85;25655;-51
2023/02/21 06:17:11;;;;;;;76.57;71.57;;;;;;;5.51;78.41;98880.94;1684884;85;25500;-52
2023/02/21 06:19:37;;;;;;;77.37;72.05;;;;;;;5.50;77.69;98876.69;1684811;85;25385;-51
2023/02/21 06:22:03;;;;;;;77.60;72.20;;;;;;;5.53;78.44;98883.31;1684866;85;25430;-53
2023/02/21 06:24:30;;;;;;;77.27;72.03;;;;;;;5.53;78.22;98885.44;1684874;85;27397;-54
2023/02/21 06:26:56;;;;;;;79.30;73.67;;;;;;;5.55;76.84;98858.30;1684862;85;25629;-51
2023/02/21 06:29:22;;;;;;;77.22;71.97;;;;;;;5.57;77.45;98889.66;1684843;85;25544;-51
2023/02/21 06:31:48;;;;;;;78.55;73.25;;;;;;;5.57;77.53;98882.95;1684791;85;25586;-53
2023/02/21 06:34:15;;;;;;;78.33;72.90;;;;;;;5.57;77.56;98879.71;1684982;85;25404;-51
2023/02/21 06:36:42;;;;;;;78.62;73.37;;;;;;;5.59;77.40;98891.47;1684852;85;27344;-53
2023/02/21 06:39:11;;;;;;;78.15;72.53;;;;;;;5.60;77.84;98899.22;1684835;85;25626;-51
2023/02/21 06:41:37;;;;;;;78.60;72.95;;;;;;;5.63;77.44;98890.30;1684968;85;25641;-51
2023/02/21 06:44:04;;;;;;;77.65;72.37;;;;;;;5.61;77.47;98884.68;1692881;83;27557;-52
2023/02/21 06:46:31;;;;;;;76.42;71.33;;;;;;;5.65;77.27;98890.78;1718765;83;25488;-51
2023/02/21 06:48:58;;;;;;;77.67;72.00;;;;;;;5.68;76.66;98911.63;1715261;83;27450;-51
2023/02/21 06:51:29;;;;;;;78.72;72.67;;;;;;;5.71;76.66;98889.55;1715178;83;25612;-51
2023/02/21 06:53:57;;;;;;;78.07;72.37;;;;;;;5.73;76.65;98910.14;1715308;83;25617;-52
2023/02/21 06:56:24;;;;;;;75.10;69.77;;;;;;;5.73;76.71;98906.90;1691036;83;25872;-50
2023/02/21 06:58:51;;;;;;;9.15;4.90;;;;;;;5.76;76.50;98908.19;1715251;83;25572;-53
2023/02/21 07:01:19;;;;;;;16.32;3.20;;;;;;;5.76;76.01;98922.95;1715218;83;28132;-52
2023/02/21 07:03:46;;;;;;;78.70;73.20;;;;;;;5.77;76.12;98919.14;1715199;83;25229;-54
2023/02/21 07:06:14;;;;;;;78.65;73.07;;;;;;;5.77;76.52;98929.34;1715195;83;25617;-54
2023/02/21 07:08:42;;;;;;;82.62;76.25;;;;;;;5.79;76.61;98929.03;1715219;83;25390;-54
2023/02/21 07:11:11;;;;;;;77.70;71.72;;;;;;;5.81;76.10;98936.22;1715298;83;25643;-53
2023/02/21 07:13:37;;;;;;;80.42;74.55;;;;;;;5.84;75.20;98954.92;1715253;83;27319;-53
2023/02/21 07:16:06;;;;;;;78.40;72.50;;;;;;;5.88;75.99;98947.30;1715116;83;25556;-51
2023/02/21 07:18:33;;;;;;;77.37;72.17;;;;;;;5.89;76.37;98962.30;1715525;83;25539;-51
2023/02/21 07:21:00;;;;;;;81.15;75.03;;;;;;;5.90;75.84;98961.19;1715213;83;25583;-53
2023/02/21 07:23:26;;;;;;;77.95;72.40;;;;;;;5.90;75.66;98963.09;1715377;83;25462;-53
2023/02/21 07:25:53;;;;;;;76.90;71.00;;;;;;;5.89;76.03;98968.20;1715366;83;27035;-50
2023/02/21 07:28:21;;;;;;;79.00;72.40;;;;;;;5.89;75.88;98958.81;1715235;83;25380;-50
2023/02/21 07:30:47;;;;;;;78.80;73.33;;;;;;;5.89;76.31;98981.63;1715384;83;25558;-50
2023/02/21 07:33:15;;;;;;;77.03;71.12;;;;;;;5.87;75.79;98985.95;1715329;83;25584;-50
2023/02/21 07:35:42;;;;;;;79.82;73.95;;;;;;;5.85;76.00;98986.81;1715393;83;25403;-50
2023/02/21 07:38:18;;;;;;;77.00;71.60;;;;;;;5.82;75.75;98989.33;1715368;83;27937;-50
2023/02/21 07:40:45;;;;;;;10.38;7.53;;;;;;;5.80;75.97;99000.37;1714746;83;25560;-50
2023/02/21 07:43:12;;;;;;;77.75;72.30;;;;;;;5.79;76.45;99014.91;1715329;83;25624;-52
2023/02/21 07:45:39;;;;;;;79.62;74.32;;;;;;;5.77;77.40;99026.47;1715201;83;25613;-49
2023/02/21 07:48:06;;;;;;;77.35;71.85;;;;;;;5.72;77.18;99023.92;1725930;83;25640;-54
2023/02/21 07:50:34;;;;;;;76.17;71.05;;;;;;;5.67;77.42;99027.55;1725951;83;27338;-51
2023/02/21 07:53:01;;;;;;;76.70;71.20;;;;;;;5.64;77.69;99044.25;1725787;83;25684;-49
2023/02/21 07:55:27;;;;;;;78.20;72.40;;;;;;;5.63;77.77;99030.58;1725909;83;25434;-51
2023/02/21 07:57:54;;;;;;;79.27;73.52;;;;;;;5.64;77.84;99043.47;1725844;83;25561;-51
2023/02/21 08:00:24;;;;;;;79.85;73.62;;;;;;;5.63;78.88;99033.27;1726077;83;25449;-51
2023/02/21 08:02:51;;;;;;;81.32;75.37;;;;;;;5.59;79.63;99044.38;1725771;83;27441;-50
2023/02/21 08:05:19;;;;;;;77.70;71.55;;;;;;;5.58;80.14;99052.98;1725864;83;25395;-51
2023/02/21 08:07:47;;;;;;;58.77;54.43;;;;;;;5.51;80.31;99043.77;1726191;83;25651;-50
2023/02/21 08:10:21;;;;;;;79.30;73.40;;;;;;;5.51;80.31;99043.77;1725906;83;25626;-50
2023/02/21 08:12:49;;;;;;;63.45;58.85;;;;;;;5.50;80.22;99059.59;1725439;83;25633;-50
2023/02/21 08:15:16;;;;;;;78.60;72.35;;;;;;;5.49;80.31;99054.01;1725921;83;27996;-49
2023/02/21 08:17:43;;;;;;;84.37;77.80;;;;;;;5.48;80.34;99062.58;1725807;83;25457;-49
2023/02/21 08:20:10;;;;;;;78.92;73.37;;;;;;;5.49;80.75;99076.25;1725857;83;25590;-50
2023/02/21 08:22:37;;;;;;;82.10;76.07;;;;;;;5.52;80.56;99074.86;1725861;81;25464;-50
2023/02/21 08:25:08;;;;;;;79.20;73.45;;;;;;;5.53;80.54;99079.11;1725922;83;25626;-55
2023/02/21 08:27:34;;;;;;;79.37;73.10;;;;;;;5.54;80.45;99085.52;1725910;83;27552;-50
2023/02/21 08:30:01;;;;;;;79.55;73.60;;;;;;;5.56;80.87;99094.05;1692863;83;25618;-52
2023/02/21 08:32:27;;;;;;;77.90;72.12;;;;;;;5.55;81.47;99097.03;1725917;83;25636;-53
2023/02/21 08:34:53;;;;;;;79.37;73.47;;;;;;;5.50;81.90;99094.47;1725908;83;25679;-51
2023/02/21 08:37:20;;;;;;;79.45;73.57;;;;;;;5.42;82.38;99098.12;1725939;83;25414;-53
2023/02/21 08:39:51;;;;;;;83.97;77.58;;;;;;;5.38;82.83;99089.64;1725900;83;27334;-51
2023/02/21 08:42:19;;;;;;;80.45;74.30;;;;;;;5.34;82.97;99104.20;1725820;83;25788;-50
2023/02/21 08:44:47;;;;;;;82.08;75.72;;;;;;;5.30;83.17;99113.96;1717994;83;25651;-51
2023/02/21 08:47:15;;;;;;;79.12;72.87;;;;;;;5.27;83.45;99111.88;1686076;85;25656;-53
2023/02/21 08:49:46;;;;;;;82.57;75.92;;;;;;;5.24;83.80;99118.66;1686189;85;25637;-53
2023/02/21 08:52:15;;;;;;;79.92;73.70;;;;;;;5.22;84.06;99121.38;1685636;85;27337;-50
2023/02/21 08:54:44;;;;;;;83.22;76.97;;;;;;;5.20;84.48;99110.95;1685701;85;25475;-51
2023/02/21 08:57:12;;;;;;;56.42;52.48;;;;;;;5.29;84.75;99134.38;1685818;85;25541;-51
2023/02/21 08:59:43;;;;;;;81.22;75.28;;;;;;;5.29;84.75;99134.38;1685627;85;25668;-53
2023/02/21 09:02:18;;;;;;;79.00;73.12;;;;;;;5.18;84.89;99121.19;1685709;85;25665;-51
2023/02/21 09:04:49;;;;;;;74.50;68.92;;;;;;;5.19;84.84;99127.34;1685498;84;27349;-55
2023/02/21 09:07:20;;;;;;;77.70;72.50;;;;;;;5.20;85.09;99121.67;1671422;84;25420;-54
2023/02/21 09:09:49;;;;;;;17.62;13.40;;;;;;;5.24;85.05;99132.06;1685194;85;25681;-55
2023/02/21 09:12:17;;;;;;;79.62;73.90;;;;;;;5.28;84.99;99129.56;1685761;85;25547;-49
2023/02/21 09:14:48;;;;;;;80.75;75.10;;;;;;;5.34;84.91;99139.06;1685766;85;25471;-51
2023/02/21 09:17:17;;;;;;;83.42;77.32;;;;;;;5.39;84.78;99148.89;1685689;85;27397;-51
2023/02/21 09:19:46;;;;;;;81.05;75.42;;;;;;;5.46;84.65;99143.12;1685671;85;29994;-50
2023/02/21 09:22:17;;;;;;;80.00;74.50;;;;;;;5.46;84.55;99153.29;1685658;85;35231;-55
2023/02/21 09:24:47;;;;;;;81.55;75.57;;;;;;;5.45;84.92;99151.72;1685601;85;25634;-51
2023/02/21 09:27:16;;;;;;;82.08;75.65;;;;;;;5.45;85.22;99161.11;1685707;85;25616;-48
2023/02/21 09:29:41;;;;;;;81.70;75.52;;;;;;;5.40;85.31;99149.94;1685202;84;27254;-50
2023/02/21 09:32:09;;;;;;;81.05;75.22;;;;;;;5.41;85.77;99166.81;1685452;85;25600;-48
2023/02/21 09:34:35;;;;;;;81.17;74.97;;;;;;;5.43;86.18;99165.95;1685677;85;25505;-51
2023/02/21 09:37:07;;;;;;;83.12;77.12;;;;;;;5.47;86.19;99161.59;1682221;83;25617;-48
2023/02/21 09:39:39;;;;;;;83.90;77.47;;;;;;;5.52;86.44;99164.16;1657954;86;25581;-48
2023/02/21 09:42:10;;;;;;;81.35;75.42;;;;;;;5.66;86.43;99166.80;1657776;86;27353;-48
2023/02/21 09:44:36;;;;;;;83.40;76.40;;;;;;;5.75;86.10;99182.96;1657760;86;25494;-47
2023/02/21 09:47:06;;;;;;;83.62;77.42;;;;;;;5.80;86.28;99177.48;1652618;85;25489;-51
2023/02/21 09:49:43;;;;;;;80.07;74.40;;;;;;;5.90;85.79;99177.23;1657003;86;25972;-47
2023/02/21 09:52:34;;;;;;;20.50;11.73;;;;;;;5.93;85.95;99183.90;1656506;86;25645;-50
2023/02/21 09:55:07;;;;;;;82.45;76.55;;;;;;;5.95;85.99;99201.27;1657122;86;27463;-47
2023/02/21 09:57:37;;;;;;;81.30;74.95;;;;;;;5.89;85.54;99197.14;1656087;86;25546;-49
2023/02/21 10:00:23;;;;;;;80.62;74.70;;;;;;;5.86;86.18;99199.08;1657093;86;25532;-50
2023/02/21 10:03:03;;;;;;;82.95;76.92;;;;;;;5.90;86.68;99208.66;1632896;86;25722;-48
2023/02/21 10:06:01;;;;;;;80.42;74.47;;;;;;;5.94;87.16;99202.39;1657192;86;25412;-49
2023/02/21 10:08:39;;;;;;;81.78;75.90;;;;;;;6.04;87.61;99202.70;1657188;86;27342;-48
2023/02/21 10:11:42;;;;;;;79.72;74.22;;;;;;;6.12;87.44;99221.33;1655731;86;25666;-48
2023/02/21 10:14:23;;;;;;;82.17;76.10;;;;;;;6.16;87.53;99208.34;1653013;86;25466;-50
2023/02/21 10:17:00;;;;;;;83.47;77.10;;;;;;;6.21;87.30;99215.45;1656922;86;25646;-51
2023/02/21 10:19:35;;;;;;;83.25;76.82;;;;;;;6.45;88.11;99225.08;1655938;86;25652;-47
2023/02/21 10:22:06;;;;;;;83.60;77.42;;;;;;;6.50;86.75;99224.95;1630276;88;28031;-48
2023/02/21 10:24:35;;;;;;;14.45;9.23;;;;;;;6.49;86.47;99225.52;1622687;88;25582;-48
2023/02/21 10:27:10;;;;;;;82.50;76.60;;;;;;;6.51;86.62;99233.27;1596918;88;25439;-49
2023/02/21 10:30:04;;;;;;;81.65;75.97;;;;;;;6.51;86.87;99228.68;1627980;88;25553;-49
2023/02/21 10:32:34;;;;;;;54.50;50.70;;;;;;;6.48;86.31;99233.88;1630358;88;25660;-51
2023/02/21 10:35:00;;;;;;;81.82;75.80;;;;;;;6.36;85.94;99245.97;1630248;88;27479;-51
2023/02/21 10:37:58;;;;;;;79.22;73.83;;;;;;;6.32;85.75;99233.47;1630227;87;25439;-47
2023/02/21 10:40:38;;;;;;;81.67;76.12;;;;;;;6.25;85.53;99231.75;1630357;87;25683;-52
2023/02/21 10:43:20;;;;;;;81.37;75.75;;;;;;;6.46;86.47;99242.24;1630230;88;26023;-50
2023/02/21 10:45:54;;;;;;;81.65;76.05;;;;;;;6.65;85.80;99242.03;1630354;86;25628;-49
2023/02/21 10:48:25;;;;;;;81.87;75.72;;;;;;;6.78;86.12;99240.37;1630334;87;27336;-49
2023/02/21 10:51:14;;;;;;;82.60;76.50;;;;;;;6.97;85.51;99240.69;1630164;88;25869;-49
2023/02/21 10:53:45;;;;;;;83.80;78.05;;;;;;;7.09;85.47;99259.16;1630264;88;25660;-49
2023/02/21 10:56:24;;;;;;;81.97;76.28;;;;;;;7.54;84.57;99256.82;1628992;87;25804;-50
2023/02/21 10:59:05;;;;;;;86.42;80.38;;;;;;;7.68;82.79;99259.41;1629410;88;25681;-49
2023/02/21 11:01:43;;;;;;;81.85;75.95;;;;;;;7.69;80.89;99261.53;1630151;88;27400;-50
2023/02/21 11:04:27;;;;;;;81.72;75.80;;;;;;;7.97;83.70;99269.56;1629879;87;25761;-50
2023/02/21 11:07:04;;;;;;;79.77;73.75;;;;;;;8.23;82.09;99260.13;1630501;88;25706;-52
2023/02/21 11:09:38;;;;;;;82.60;75.97;;;;;;;8.27;81.67;99285.87;1629940;87;25452;-51
2023/02/21 11:12:24;;;;;;;80.57;74.62;;;;;;;8.10;79.44;99309.55;1630384;88;25701;-49
2023/02/21 11:14:58;;;;;;;82.08;76.10;;;;;;;7.86;79.54;99285.22;1629390;87;27413;-49
2023/02/21 11:17:32;;;;;;;83.87;77.87;;;;;;;7.72;80.16;99294.00;1629962;88;25581;-48
2023/02/21 11:20:23;;;;;;;80.70;74.72;;;;;;;7.65;80.02;99292.33;1630382;88;25646;-53
2023/02/21 11:22:51;;;;;;;83.47;77.08;;;;;;;7.63;80.32;99302.62;1630427;88;25570;-50
2023/02/21 11:25:30;;;;;;;81.00;74.97;;;;;;;8.04;81.19;99291.98;1630426;88;25428;-52
2023/02/21 11:28:18;;;;;;;78.78;72.53;;;;;;;8.06;80.30;99315.34;1629519;88;27409;-52
2023/02/21 11:31:09;;;;;;;82.50;76.77;;;;;;;7.94;80.69;99309.80;1630234;88;25745;-48
2023/02/21 11:33:53;;;;;;;78.30;72.42;;;;;;;7.72;80.02;99316.09;1629609;87;25429;-50
2023/02/21 11:36:28;;;;;;;37.83;34.73;;;;;;;7.50;80.12;99321.02;1630321;87;25429;-49
2023/02/21 11:39:28;;;;;;;82.88;76.62;;;;;;;7.33;80.40;99322.53;1630442;88;25590;-52
2023/02/21 11:42:05;;;;;;;77.67;72.15;;;;;;;7.21;80.80;99321.77;1629595;87;27433;-49
2023/02/21 11:44:42;;;;;;;84.87;78.90;;;;;;;7.13;81.30;99308.29;1629716;88;25768;-49
2023/02/21 11:47:27;;;;;;;83.25;77.35;;;;;;;7.03;81.53;99309.34;1652662;86;25560;-49
2023/02/21 11:50:27;;;;;;;83.37;77.45;;;;;;;6.93;82.05;99331.93;1658710;86;25502;-47
2023/02/21 11:53:21;;;;;;;82.37;76.53;;;;;;;6.85;82.96;99315.98;1658957;86;25490;-50
2023/02/21 11:56:02;;;;;;;84.80;78.97;;;;;;;7.02;84.46;99317.97;1657904;86;27448;-48
2023/02/21 11:59:08;;;;;;;82.17;76.10;;;;;;;7.33;84.84;99315.02;1656133;85;25581;-51
2023/02/21 12:01:58;;;;;;;84.70;78.67;;;;;;;7.42;83.85;99317.99;1657695;85;25641;-50
2023/02/21 12:04:45;;;;;;;80.95;74.97;;;;;;;7.82;85.28;99306.38;1657631;86;25821;-52
2023/02/21 12:07:23;;;;;;;84.90;78.60;;;;;;;8.28;84.44;99319.02;1657323;86;25625;-51
2023/02/21 12:10:03;;;;;;;82.90;77.42;;;;;;;8.29;81.78;99324.09;1647951;86;27372;-52
2023/02/21 12:12:47;;;;;;;82.12;76.45;;;;;;;8.16;81.02;99322.33;1658027;86;25914;-51
2023/02/21 12:15:31;;;;;;;82.57;76.70;;;;;;;8.02;79.88;99327.31;1658479;86;25546;-51
2023/02/21 12:18:23;;;;;;;83.27;76.85;;;;;;;7.87;79.69;99341.22;1658808;86;25642;-53
2023/02/21 12:21:19;;;;;;;85.20;78.57;;;;;;;8.07;82.58;99333.64;1658906;86;25489;-52
2023/02/21 12:24:28;;;;;;;82.78;77.08;;;;;;;8.94;84.19;99336.33;1638254;86;27443;-52
2023/02/21 12:27:11;;;;;;;81.17;75.10;;;;;;;9.56;82.91;99326.89;1645315;86;25716;-51
2023/02/21 12:29:55;;;;;;;80.30;74.65;;;;;;;10.32;83.05;99329.75;1667843;86;25682;-50
2023/02/21 12:32:46;;;;;;;80.35;74.58;;;;;;;10.94;80.72;99345.67;1668186;86;25803;-51
2023/02/21 12:35:30;;;;;;;83.45;77.27;;;;;;;11.16;76.54;99347.97;1667627;86;25800;-51
2023/02/21 12:38:17;;;;;;;81.97;76.20;;;;;;;11.09;74.51;99352.36;1668337;86;27419;-52
2023/02/21 12:41:06;;;;;;;85.32;79.47;;;;;;;11.35;74.56;99351.48;1666921;86;25684;-48
2023/02/21 12:44:02;;;;;;;83.07;76.80;;;;;;;11.52;75.24;99350.48;1667280;86;25679;-51
2023/02/21 12:46:59;;;;;;;83.90;78.15;;;;;;;11.70;73.97;99332.10;1668162;85;25946;-53
2023/02/21 12:49:55;;;;;;;70.95;65.90;;;;;;;11.51;72.50;99354.34;1667030;85;25729;-56
2023/02/21 12:52:39;;;;;;;17.10;15.23;;;;;;;11.35;71.80;99356.91;1667457;86;28305;-52
2023/02/21 12:55:26;;;;;;;15.68;6.78;;;;;;;11.10;70.41;99353.93;1668200;86;25563;-54
2023/02/21 12:58:23;;;;;;;48.70;44.93;;;;;;;10.80;70.39;99364.34;1634867;87;25497;-51
2023/02/21 13:01:09;;;;;;;31.90;29.10;;;;;;;10.49;69.98;99355.86;1623851;87;25772;-53
2023/02/21 13:04:07;;;;;;;15.03;13.53;;;;;;;10.26;70.06;99362.36;1639611;87;25575;-52
2023/02/21 13:06:39;;;;;;;12.58;9.75;;;;;;;9.94;70.50;99371.16;1624977;87;28108;-54
2023/02/21 13:09:30;;;;;;;50.55;46.83;;;;;;;9.61;70.70;99367.20;1638890;87;25689;-52
2023/02/21 13:12:12;;;;;;;47.55;43.58;;;;;;;9.38;70.86;99372.07;1639686;87;25572;-52
2023/02/21 13:14:48;;;;;;;35.63;32.73;;;;;;;9.11;71.36;99365.95;1639743;87;25701;-52
2023/02/21 13:17:18;;;;;;;76.65;71.25;;;;;;;8.90;71.55;99375.27;1639754;87;25474;-50
2023/02/21 13:19:58;;;;;;;47.10;42.93;;;;;;;8.69;71.98;99375.14;1617588;87;27427;-54
2023/02/21 13:22:44;;;;;;;83.37;77.12;;;;;;;8.57;72.42;99374.98;1637351;87;25650;-55
2023/02/21 13:25:38;;;;;;;78.67;73.05;;;;;;;8.46;72.94;99375.84;1639628;87;25510;-53
2023/02/21 13:28:23;;;;;;;81.90;75.95;;;;;;;8.33;72.79;99372.17;1638424;87;25659;-52
2023/02/21 13:31:04;;;;;;;85.53;79.60;;;;;;;8.20;72.73;99391.97;1642823;85;25677;-52
2023/02/21 13:33:45;;;;;;;21.75;19.65;;;;;;;8.12;72.71;99397.59;1659312;85;27429;-53
2023/02/21 13:36:43;;;;;;;22.87;21.00;;;;;;;7.99;72.50;99393.13;1720087;83;25638;-53
2023/02/21 13:39:19;;;;;;;40.20;37.40;;;;;;;7.77;73.26;99393.45;1720094;83;25618;-50
2023/02/21 13:41:57;;;;;;;24.85;22.32;;;;;;;7.56;73.38;99420.14;1677945;85;26074;-50
2023/02/21 13:44:29;;;;;;;36.13;33.13;;;;;;;7.37;74.26;99402.88;1717393;83;25404;-52
2023/02/21 13:47:07;;;;;;;83.80;77.47;;;;;;;7.23;74.73;99415.05;1716925;82;27351;-51
2023/02/21 13:49:55;;;;;;;85.10;78.75;;;;;;;7.14;75.30;99408.83;1722408;83;25475;-55
2023/02/21 13:52:30;;;;;;;82.12;76.25;;;;;;;7.03;75.64;99420.40;1716430;83;25703;-51
2023/02/21 13:55:20;;;;;;;18.45;15.05;;;;;;;6.94;76.03;99420.88;1714792;83;26069;-50
2023/02/21 13:57:56;;;;;;;16.75;10.93;;;;;;;6.90;76.45;99438.17;1714769;83;25446;-53
2023/02/21 14:00:31;;;;;;;40.35;36.90;;;;;;;6.90;76.84;99423.94;1714847;83;27414;-51
2023/02/21 14:03:16;;;;;;;76.37;70.60;;;;;;;6.88;76.72;99429.62;1714744;83;25586;-52
2023/02/21 14:05:52;;;;;;;87.47;80.85;;;;;;;6.85;76.90;99430.22;1712014;83;25572;-52
2023/02/21 14:08:44;;;;;;;;;;;;;;;6.80;76.52;99426.31;1717227;83;25759;-51
2023/02/21 14:11:23;;;;;;;82.60;76.80;;;;;;;6.77;76.59;99429.60;1714862;83;25461;-50
2023/02/21 14:14:06;;;;;;;87.02;80.85;;;;;;;6.77;76.57;99437.66;1714897;83;27421;-51
2023/02/21 14:16:50;;;;;;;84.37;77.95;;;;;;;6.73;76.55;99448.79;1710312;83;25689;-56
2023/02/21 14:19:22;;;;;;;84.47;78.37;;;;;;;6.72;76.63;99439.94;1712849;83;25746;-57